createdAt,value
2022-08-01T00:00:52.256Z,2.20
2022-08-01T00:03:21.455Z,2.50
2022-08-01T00:05:50.040Z,2.03
2022-08-01T00:08:17.912Z,2.28
2022-08-01T00:10:45.873Z,1.88
2022-08-01T00:13:13.744Z,2.22
2022-08-01T00:15:41.625Z,1.98
2022-08-01T00:18:23.582Z,2.55
2022-08-01T00:20:51.517Z,2.33
2022-08-01T00:23:19.420Z,2.40
2022-08-01T00:25:47.270Z,2.20
2022-08-01T00:28:15.220Z,2.05
2022-08-01T00:30:43.045Z,2.47
2022-08-01T00:33:10.965Z,1.95
2022-08-01T00:35:40.157Z,2.35
2022-08-01T00:38:08.027Z,2.33
2022-08-01T00:40:36.057Z,2.40
2022-08-01T00:43:04.009Z,2.17
2022-08-01T00:45:31.869Z,2.28
2022-08-01T00:47:59.750Z,2.35
2022-08-01T00:50:27.808Z,2.08
2022-08-01T00:52:59.348Z,2.50
2022-08-01T00:55:28.214Z,2.90
2022-08-01T00:58:02.162Z,2.40
2022-08-01T01:00:31.014Z,2.20
2022-08-01T01:03:02.920Z,2.25
2022-08-01T01:05:37.427Z,2.80
2022-08-01T01:08:14.157Z,2.47
2022-08-01T01:10:48.102Z,2.40
2022-08-01T01:13:22.585Z,2.40
2022-08-01T01:15:57.320Z,2.58
2022-08-01T01:18:29.308Z,2.83
2022-08-01T01:21:07.141Z,2.22
2022-08-01T01:23:50.757Z,3.15
2022-08-01T01:26:29.040Z,2.53
2022-08-01T01:29:08.579Z,2.30
2022-08-01T01:31:45.110Z,2.60
2022-08-01T01:34:15.595Z,2.53
2022-08-01T01:36:45.677Z,2.75
2022-08-01T01:39:15.149Z,2.85
2022-08-01T01:41:44.891Z,2.50
2022-08-01T01:44:15.173Z,2.63
2022-08-01T01:46:43.754Z,3.05
2022-08-01T01:49:12.949Z,2.70
2022-08-01T01:52:00.754Z,2.80
2022-08-01T01:54:35.043Z,2.42
2022-08-01T01:57:05.248Z,2.63
2022-08-01T01:59:36.906Z,2.90
2022-08-01T02:02:06.990Z,2.88
2022-08-01T02:04:37.267Z,2.33
2022-08-01T02:07:06.116Z,2.58
2022-08-01T02:09:35.905Z,2.97
2022-08-01T02:12:05.113Z,2.45
2022-08-01T02:14:40.911Z,2.65
2022-08-01T02:17:11.018Z,2.60
2022-08-01T02:19:39.936Z,2.58
2022-08-01T02:22:12.243Z,2.50
2022-08-01T02:24:48.871Z,2.65
2022-08-01T02:27:21.587Z,3.33
2022-08-01T02:29:57.486Z,3.20
2022-08-01T02:32:29.157Z,3.35
2022-08-01T02:34:59.099Z,2.83
2022-08-01T02:37:30.960Z,2.65
2022-08-01T02:39:59.651Z,2.60
2022-08-01T02:42:30.842Z,2.50
2022-08-01T02:45:00.443Z,2.70
2022-08-01T02:47:31.048Z,2.70
2022-08-01T02:50:00.146Z,2.50
2022-08-01T02:52:30.512Z,2.53
2022-08-01T02:54:59.409Z,2.97
2022-08-01T02:57:51.544Z,2.72
2022-08-01T03:00:20.255Z,2.72
2022-08-01T03:02:55.760Z,2.47
2022-08-01T03:05:25.936Z,2.63
2022-08-01T03:07:55.862Z,2.53
2022-08-01T03:10:26.514Z,2.28
2022-08-01T03:12:55.829Z,2.83
2022-08-01T03:15:26.919Z,2.33
2022-08-01T03:17:57.386Z,2.38
2022-08-01T03:20:28.457Z,2.08
2022-08-01T03:22:58.979Z,2.63
2022-08-01T03:25:30.017Z,2.50
2022-08-01T03:28:00.576Z,2.72
2022-08-01T03:30:32.026Z,2.38
2022-08-01T03:33:01.073Z,2.03
2022-08-01T03:35:32.826Z,2.42
2022-08-01T03:38:18.203Z,2.45
2022-08-01T03:40:50.736Z,2.20
2022-08-01T03:43:24.447Z,2.40
2022-08-01T03:45:55.193Z,2.15
2022-08-01T03:48:30.408Z,2.15
2022-08-01T03:51:00.590Z,2.67
2022-08-01T03:53:32.460Z,2.50
2022-08-01T03:56:02.408Z,2.40
2022-08-01T03:58:31.593Z,2.22
2022-08-01T04:01:01.579Z,2.40
2022-08-01T04:03:30.512Z,2.63
2022-08-01T04:05:58.653Z,2.20
2022-08-01T04:08:36.522Z,2.60
2022-08-01T04:11:04.520Z,2.45
2022-08-01T04:13:37.039Z,2.40
2022-08-01T04:16:07.509Z,2.70
2022-08-01T04:18:35.463Z,2.97
2022-08-01T04:21:03.408Z,2.60
2022-08-01T04:23:33.477Z,2.40
2022-08-01T04:26:05.050Z,2.42
2022-08-01T04:28:36.623Z,2.60
2022-08-01T04:31:08.201Z,2.40
2022-08-01T04:33:37.480Z,2.40
2022-08-01T04:36:08.144Z,3.00
2022-08-01T04:38:37.993Z,2.60
2022-08-01T04:41:08.495Z,2.95
2022-08-01T04:43:37.891Z,2.22
2022-08-01T04:46:08.002Z,2.67
2022-08-01T04:48:39.439Z,2.75
2022-08-01T04:51:14.568Z,2.90
2022-08-01T04:53:42.553Z,2.67
2022-08-01T04:56:10.558Z,2.95
2022-08-01T04:58:38.422Z,2.70
2022-08-01T05:01:07.649Z,3.00
2022-08-01T05:03:38.789Z,3.70
2022-08-01T05:06:07.549Z,2.78
2022-08-01T05:08:37.035Z,2.80
2022-08-01T05:11:05.061Z,2.20
2022-08-01T05:13:33.029Z,2.63
2022-08-01T05:16:01.098Z,2.30
2022-08-01T05:18:30.343Z,2.58
2022-08-01T05:20:58.709Z,2.47
2022-08-01T05:23:42.200Z,3.45
2022-08-01T05:26:14.714Z,2.85
2022-08-01T05:28:42.985Z,2.28
2022-08-01T05:31:10.942Z,2.33
2022-08-01T05:33:40.136Z,2.40
2022-08-01T05:36:08.154Z,2.50
2022-08-01T05:38:36.013Z,2.55
2022-08-01T05:41:03.874Z,2.25
2022-08-01T05:43:32.053Z,2.05
2022-08-01T05:46:00.261Z,2.50
2022-08-01T05:48:28.167Z,2.67
2022-08-01T05:50:58.796Z,2.38
2022-08-01T05:53:27.594Z,2.20
2022-08-01T05:55:55.465Z,2.53
2022-08-01T05:58:23.389Z,2.38
2022-08-01T06:00:51.233Z,2.20
2022-08-01T06:03:19.070Z,2.65
2022-08-01T06:05:46.946Z,2.50
2022-08-01T06:08:16.215Z,2.42
2022-08-01T06:10:44.061Z,2.45
2022-08-01T06:13:11.916Z,2.28
2022-08-01T06:15:39.906Z,2.47
2022-08-01T06:18:07.825Z,2.35
2022-08-01T06:20:35.728Z,2.88
2022-08-01T06:23:16.999Z,2.75
2022-08-01T06:25:54.442Z,1.63
2022-08-01T06:28:22.425Z,2.50
2022-08-01T06:30:50.295Z,3.38
2022-08-01T06:33:18.209Z,2.35
2022-08-01T06:35:46.025Z,2.17
2022-08-01T06:38:13.942Z,1.80
2022-08-01T06:40:41.862Z,2.00
2022-08-01T06:43:12.331Z,1.92
2022-08-01T06:45:40.382Z,2.00
2022-08-01T06:48:08.481Z,2.15
2022-08-01T06:50:37.737Z,2.33
2022-08-01T06:53:06.100Z,2.00
2022-08-01T06:55:33.989Z,2.22
2022-08-01T06:58:01.935Z,1.80
2022-08-01T07:00:31.737Z,1.98
2022-08-01T07:03:00.782Z,1.98
2022-08-01T07:05:31.813Z,1.90
2022-08-01T07:08:00.123Z,2.03
2022-08-01T07:10:28.001Z,1.60
2022-08-01T07:12:55.983Z,1.48
2022-08-01T07:15:27.324Z,1.63
2022-08-01T07:17:57.934Z,1.60
2022-08-01T07:20:25.817Z,1.65
2022-08-01T07:22:54.204Z,1.60
2022-08-01T07:25:24.707Z,1.30
2022-08-01T07:27:52.772Z,1.48
2022-08-01T07:30:20.826Z,1.55
2022-08-01T07:32:48.732Z,1.60
2022-08-01T07:35:17.963Z,1.60
2022-08-01T07:37:49.160Z,1.73
2022-08-01T07:40:18.804Z,1.83
2022-08-01T07:42:47.187Z,2.03
2022-08-01T07:45:16.096Z,1.90
2022-08-01T07:47:44.146Z,1.90
2022-08-01T07:50:13.437Z,1.60
2022-08-01T07:52:42.682Z,1.63
2022-08-01T07:55:11.718Z,1.70
2022-08-01T07:57:44.200Z,1.88
2022-08-01T08:00:12.986Z,2.03
2022-08-01T08:02:40.925Z,2.80
2022-08-01T08:05:09.524Z,2.10
2022-08-01T08:07:40.286Z,2.15
2022-08-01T08:10:10.577Z,2.10
2022-08-01T08:12:38.638Z,2.53
2022-08-01T08:15:07.635Z,2.53
2022-08-01T08:17:36.722Z,2.22
2022-08-01T08:20:09.040Z,2.65
2022-08-01T08:22:38.241Z,2.10
2022-08-01T08:25:07.614Z,1.85
2022-08-01T08:27:37.949Z,1.90
2022-08-01T08:30:09.137Z,2.60
2022-08-01T08:32:37.489Z,2.22
2022-08-01T08:35:07.340Z,2.17
2022-08-01T08:37:39.059Z,2.05
2022-08-01T08:40:17.719Z,1.90
2022-08-01T08:42:48.352Z,1.85
2022-08-01T08:45:16.301Z,2.28
2022-08-01T08:47:47.475Z,2.13
2022-08-01T08:50:15.840Z,2.40
2022-08-01T08:52:45.347Z,2.38
2022-08-01T08:55:15.543Z,2.30
2022-08-01T08:57:47.314Z,2.35
2022-08-01T09:00:17.090Z,2.47
2022-08-01T09:02:46.122Z,2.78
2022-08-01T09:05:19.315Z,2.47
2022-08-01T09:07:47.687Z,2.40
2022-08-01T09:10:15.599Z,2.25
2022-08-01T09:13:05.728Z,2.20
2022-08-01T09:15:44.351Z,2.60
2022-08-01T09:18:28.980Z,2.30
2022-08-01T09:21:15.208Z,2.60
2022-08-01T09:23:53.259Z,2.22
2022-08-01T09:26:29.637Z,2.00
2022-08-01T09:29:02.835Z,2.10
2022-08-01T09:31:38.394Z,2.30
2022-08-01T09:34:08.427Z,1.92
2022-08-01T09:36:49.462Z,2.20
2022-08-01T09:39:17.867Z,2.45
2022-08-01T09:41:45.766Z,2.20
2022-08-01T09:44:15.524Z,2.25
2022-08-01T09:46:54.991Z,2.47
2022-08-01T09:49:49.700Z,3.20
2022-08-01T09:52:19.647Z,3.15
2022-08-01T09:54:54.843Z,4.32
2022-08-01T09:57:23.289Z,3.85
2022-08-01T09:59:59.031Z,4.18
2022-08-01T10:02:34.062Z,3.22
2022-08-01T10:05:08.344Z,3.58
2022-08-01T10:07:43.712Z,3.42
2022-08-01T10:10:14.517Z,3.83
2022-08-01T10:12:45.856Z,3.75
2022-08-01T10:15:18.520Z,3.70
2022-08-01T10:17:57.243Z,3.25
2022-08-01T10:20:30.865Z,3.08
2022-08-01T10:23:05.641Z,2.90
2022-08-01T10:25:42.289Z,2.85
2022-08-01T10:28:17.817Z,2.92
2022-08-01T10:30:49.928Z,2.50
2022-08-01T10:33:49.621Z,2.38
2022-08-01T10:36:08.612Z,2.15
2022-08-01T10:38:37.523Z,2.20
2022-08-01T10:41:09.075Z,2.50
2022-08-01T10:43:37.419Z,2.47
2022-08-01T10:46:07.263Z,3.00
2022-08-01T10:48:44.905Z,2.45
2022-08-01T10:51:17.532Z,2.33
2022-08-01T10:53:54.254Z,2.72
2022-08-01T10:56:26.760Z,2.95
2022-08-01T10:59:06.443Z,3.20
2022-08-01T11:01:44.954Z,2.53
2022-08-01T11:04:17.763Z,2.38
2022-08-01T11:07:04.555Z,2.50
2022-08-01T11:09:40.677Z,2.65
2022-08-01T11:12:13.496Z,2.65
2022-08-01T11:15:29.258Z,2.70
2022-08-01T11:18:01.554Z,2.67
2022-08-01T11:20:32.211Z,2.55
2022-08-01T11:23:29.340Z,2.63
2022-08-01T11:26:29.179Z,2.10
2022-08-01T11:29:21.958Z,2.00
2022-08-01T11:31:52.601Z,2.15
2022-08-01T11:34:42.039Z,2.20
2022-08-01T11:37:25.450Z,2.20
2022-08-01T11:40:17.367Z,2.05
2022-08-01T11:42:45.658Z,2.25
2022-08-01T11:45:18.037Z,2.08
2022-08-01T11:47:47.725Z,2.15
2022-08-01T11:50:36.770Z,1.90
2022-08-01T11:53:07.604Z,2.03
2022-08-01T11:55:36.722Z,2.60
2022-08-01T11:58:06.249Z,2.28
2022-08-01T12:00:34.633Z,2.00
2022-08-01T12:03:04.857Z,2.90
2022-08-01T12:05:37.784Z,2.72
2022-08-01T12:08:11.314Z,2.63
2022-08-01T12:10:47.140Z,2.35
2022-08-01T12:13:18.884Z,2.40
2022-08-01T12:15:47.491Z,2.05
2022-08-01T12:18:15.671Z,2.03
2022-08-01T12:20:56.549Z,1.65
2022-08-01T12:23:25.420Z,2.08
2022-08-01T12:25:55.080Z,1.60
2022-08-01T12:28:23.771Z,1.60
2022-08-01T12:30:52.096Z,1.92
2022-08-01T12:33:22.349Z,1.85
2022-08-01T12:35:51.688Z,1.67
2022-08-01T12:38:23.039Z,1.63
2022-08-01T12:40:52.950Z,1.63
2022-08-01T12:43:28.674Z,2.08
2022-08-01T12:45:59.886Z,1.98
2022-08-01T12:48:28.718Z,1.90
2022-08-01T12:51:01.951Z,1.90
2022-08-01T12:53:40.165Z,2.03
2022-08-01T12:56:12.005Z,2.20
2022-08-01T12:58:40.283Z,1.92
2022-08-01T13:01:10.240Z,1.42
2022-08-01T13:03:38.867Z,1.55
2022-08-01T13:06:15.700Z,1.50
2022-08-01T13:08:44.676Z,1.80
2022-08-01T13:11:16.306Z,1.85
2022-08-01T13:13:48.066Z,1.35
2022-08-01T13:16:25.909Z,1.73
2022-08-01T13:19:03.076Z,1.77
2022-08-01T13:21:53.282Z,1.67
2022-08-01T13:24:25.883Z,1.80
2022-08-01T13:26:56.881Z,1.55
2022-08-01T13:29:32.101Z,2.08
2022-08-01T13:32:00.323Z,1.63
2022-08-01T13:34:35.011Z,1.92
2022-08-01T13:37:04.424Z,1.75
2022-08-01T13:39:45.384Z,1.98
2022-08-01T13:42:19.435Z,1.65
2022-08-01T13:44:47.674Z,1.60
2022-08-01T13:47:16.920Z,1.85
2022-08-01T13:49:45.305Z,2.00
2022-08-01T13:52:14.605Z,1.77
2022-08-01T13:54:42.574Z,2.13
2022-08-01T13:57:10.930Z,2.08
2022-08-01T13:59:38.800Z,2.30
2022-08-01T14:02:07.003Z,2.28
2022-08-01T14:04:35.135Z,2.78
2022-08-01T14:07:09.563Z,2.45
2022-08-01T14:09:57.789Z,2.50
2022-08-01T14:12:29.078Z,2.60
2022-08-01T14:14:57.312Z,2.20
2022-08-01T14:17:25.259Z,2.08
2022-08-01T14:19:57.469Z,2.95
2022-08-01T14:22:25.359Z,2.70
2022-08-01T14:24:58.271Z,2.72
2022-08-01T14:27:31.131Z,2.40
2022-08-01T14:30:03.616Z,2.60
2022-08-01T14:32:34.075Z,2.00
2022-08-01T14:35:02.019Z,2.17
2022-08-01T14:37:34.719Z,2.75
2022-08-01T14:40:10.362Z,2.10
2022-08-01T14:42:39.175Z,2.08
2022-08-01T14:45:10.326Z,2.60
2022-08-01T14:47:38.771Z,2.50
2022-08-01T14:50:09.395Z,2.30
2022-08-01T14:52:37.884Z,1.95
2022-08-01T14:55:09.567Z,2.22
2022-08-01T14:57:37.910Z,2.20
2022-08-01T15:00:08.524Z,2.00
2022-08-01T15:02:36.446Z,2.50
2022-08-01T15:05:05.029Z,2.60
2022-08-01T15:07:33.309Z,2.10
2022-08-01T15:10:01.268Z,2.08
2022-08-01T15:12:49.367Z,2.25
2022-08-01T15:15:18.101Z,2.03
2022-08-01T15:17:46.044Z,2.13
2022-08-01T15:20:14.008Z,2.03
2022-08-01T15:22:41.868Z,1.70
2022-08-01T15:25:09.808Z,1.90
2022-08-01T15:27:39.085Z,1.75
2022-08-01T15:30:07.805Z,1.85
2022-08-01T15:32:35.675Z,2.25
2022-08-01T15:35:03.574Z,2.10
2022-08-01T15:37:31.487Z,2.33
2022-08-01T15:39:59.468Z,1.77
2022-08-01T15:42:27.460Z,2.22
2022-08-01T15:44:56.685Z,2.35
2022-08-01T15:47:24.924Z,2.17
2022-08-01T15:49:53.324Z,2.33
2022-08-01T15:52:23.082Z,2.33
2022-08-01T15:54:58.586Z,2.35
2022-08-01T15:57:26.448Z,1.83
2022-08-01T15:59:55.822Z,2.13
2022-08-01T16:02:23.727Z,2.28
2022-08-01T16:04:51.656Z,2.20
2022-08-01T16:07:19.522Z,2.00
2022-08-01T16:09:47.470Z,2.20
2022-08-01T16:12:15.339Z,1.70
2022-08-01T16:14:43.229Z,1.70
2022-08-01T16:17:12.440Z,2.00
2022-08-01T16:19:40.761Z,2.05
2022-08-01T16:22:09.019Z,1.48
2022-08-01T16:24:37.341Z,1.88
2022-08-01T16:27:05.751Z,1.40
2022-08-01T16:29:34.719Z,1.65
2022-08-01T16:32:03.542Z,1.92
2022-08-01T16:34:38.319Z,1.50
2022-08-01T16:37:09.889Z,1.58
2022-08-01T16:39:38.439Z,1.73
2022-08-01T16:42:07.042Z,1.52
2022-08-01T16:44:35.056Z,1.25
2022-08-01T16:47:03.841Z,1.50
2022-08-01T16:49:32.621Z,1.42
2022-08-01T16:52:01.913Z,1.88
2022-08-01T16:54:29.761Z,1.45
2022-08-01T16:57:08.452Z,1.20
2022-08-01T16:59:40.953Z,1.42
2022-08-01T17:02:10.700Z,1.40
2022-08-01T17:04:38.726Z,1.60
2022-08-01T17:07:08.343Z,1.25
2022-08-01T17:09:39.914Z,1.55
2022-08-01T17:12:13.074Z,1.30
2022-08-01T17:14:46.263Z,1.50
2022-08-01T17:17:14.665Z,1.55
2022-08-01T17:19:42.549Z,1.30
2022-08-01T17:22:11.843Z,1.50
2022-08-01T17:24:39.776Z,1.80
2022-08-01T17:27:12.541Z,1.58
2022-08-01T17:29:44.160Z,1.42
2022-08-01T17:32:12.493Z,1.38
2022-08-01T17:34:40.385Z,1.30
2022-08-01T17:37:08.745Z,1.50
2022-08-01T17:39:39.380Z,1.48
2022-08-01T17:42:08.758Z,1.15
2022-08-01T17:44:36.655Z,1.50
2022-08-01T17:47:06.092Z,1.00
2022-08-01T17:49:53.878Z,1.30
2022-08-01T17:52:22.168Z,1.53
2022-08-01T17:54:51.897Z,1.38
2022-08-01T17:57:19.814Z,1.25
2022-08-01T17:59:47.687Z,1.30
2022-08-01T18:02:15.533Z,1.35
2022-08-01T18:04:44.421Z,1.55
2022-08-01T18:07:13.221Z,1.20
2022-08-01T18:09:45.580Z,1.60
2022-08-01T18:12:15.738Z,1.33
2022-08-01T18:14:46.922Z,1.42
2022-08-01T18:17:14.969Z,1.48
2022-08-01T18:19:46.720Z,1.50
2022-08-01T18:22:31.845Z,1.27
2022-08-01T18:25:07.588Z,1.33
2022-08-01T18:28:16.604Z,1.20
2022-08-01T18:30:26.128Z,1.30
2022-08-01T18:32:54.762Z,1.13
2022-08-01T18:35:25.628Z,1.55
2022-08-01T18:38:02.307Z,0.95
2022-08-01T18:40:30.822Z,1.45
2022-08-01T18:42:59.991Z,1.30
2022-08-01T18:45:27.850Z,1.08
2022-08-01T18:47:56.271Z,1.33
2022-08-01T18:50:26.441Z,1.20
2022-08-01T18:52:54.721Z,1.42
2022-08-01T18:55:22.689Z,1.35
2022-08-01T18:57:50.545Z,1.52
2022-08-01T19:00:19.898Z,1.92
2022-08-01T19:02:47.999Z,1.92
2022-08-01T19:05:15.913Z,1.55
2022-08-01T19:08:05.388Z,1.77
2022-08-01T19:10:31.640Z,1.50
2022-08-01T19:13:00.153Z,1.30
2022-08-01T19:15:29.372Z,1.95
2022-08-01T19:17:57.261Z,2.60
2022-08-01T19:20:25.322Z,2.80
2022-08-01T19:22:53.290Z,3.03
2022-08-01T19:25:21.394Z,8.93
2022-08-01T19:27:51.054Z,5.07
2022-08-01T19:30:19.987Z,11.35
2022-08-01T19:32:49.705Z,3.88
2022-08-01T19:35:18.119Z,10.13
2022-08-01T19:37:47.676Z,3.70
2022-08-01T19:40:27.117Z,3.80
2022-08-01T19:42:57.500Z,3.78
2022-08-01T19:45:29.143Z,3.13
2022-08-01T19:47:58.761Z,3.63
2022-08-01T19:50:27.328Z,4.32
2022-08-01T19:52:57.489Z,3.55
2022-08-01T19:55:26.147Z,4.55
2022-08-01T20:03:15.943Z,3.92
2022-08-01T20:05:44.838Z,4.63
2022-08-01T20:08:13.459Z,4.78
2022-08-01T20:10:41.812Z,4.78
2022-08-01T20:13:10.979Z,5.22
2022-08-01T20:15:39.262Z,4.47
2022-08-01T20:18:07.889Z,4.78
2022-08-01T20:20:38.682Z,4.28
2022-08-01T20:23:18.467Z,4.63
2022-08-01T20:25:49.430Z,3.85
2022-08-01T20:28:22.518Z,4.20
2022-08-01T20:30:55.240Z,4.53
2022-08-01T20:33:24.830Z,3.70
2022-08-01T20:35:56.048Z,4.22
2022-08-01T20:38:29.403Z,4.10
2022-08-01T20:40:58.707Z,5.18
2022-08-01T20:43:27.917Z,4.32
2022-08-01T20:45:56.816Z,4.63
2022-08-01T20:48:27.271Z,5.00
2022-08-01T20:51:17.246Z,4.82
2022-08-01T20:53:48.961Z,4.57
2022-08-01T20:56:20.678Z,4.32
2022-08-01T20:59:11.548Z,5.63
2022-08-01T21:02:06.984Z,5.68
2022-08-01T21:04:45.154Z,5.22
2022-08-01T21:09:56.137Z,5.00
2022-08-01T21:12:28.107Z,5.30
2022-08-01T21:14:58.786Z,6.15
2022-08-01T21:17:38.846Z,5.63
2022-08-01T21:20:08.691Z,7.00
2022-08-01T21:22:47.122Z,5.75
2022-08-01T21:25:18.985Z,6.20
2022-08-01T21:27:49.530Z,5.55
2022-08-01T21:30:18.537Z,6.47
2022-08-01T21:32:48.755Z,6.35
2022-08-01T21:35:18.877Z,5.35
2022-08-01T21:37:52.432Z,5.03
2022-08-01T21:40:22.359Z,5.07
2022-08-01T21:42:53.635Z,4.63
2022-08-01T21:45:29.459Z,5.90
2022-08-01T21:47:59.991Z,4.88
2022-08-01T21:50:34.139Z,5.32
2022-08-01T21:53:16.483Z,5.68
2022-08-01T21:55:57.425Z,5.53
2022-08-01T21:58:35.724Z,4.57
2022-08-01T22:01:08.596Z,4.35
2022-08-01T22:03:43.378Z,5.05
2022-08-01T22:06:11.994Z,3.97
2022-08-01T22:08:49.766Z,4.57
2022-08-01T22:11:21.114Z,4.45
2022-08-01T22:13:53.214Z,4.85
2022-08-01T22:16:21.927Z,4.20
2022-08-01T22:18:51.526Z,4.60
2022-08-01T22:21:20.717Z,4.20
2022-08-01T22:23:52.644Z,4.28
2022-08-01T22:26:27.123Z,5.57
2022-08-01T22:28:57.188Z,4.60
2022-08-01T22:31:25.575Z,5.00
2022-08-01T22:33:54.041Z,4.00
2022-08-01T22:36:21.934Z,4.35
2022-08-01T22:38:51.203Z,4.78
2022-08-01T22:41:22.131Z,4.72
2022-08-01T22:43:57.137Z,3.53
2022-08-01T22:46:36.034Z,3.92
2022-08-01T22:49:13.735Z,4.75
2022-08-01T22:51:55.347Z,4.75
2022-08-01T22:54:30.833Z,4.35
2022-08-01T22:57:07.407Z,4.75
2022-08-01T22:59:43.569Z,4.90
2022-08-01T23:02:16.461Z,4.63
2022-08-01T23:04:47.122Z,5.15
2022-08-01T23:07:21.041Z,4.93
2022-08-01T23:09:54.861Z,4.43
2022-08-01T23:12:25.271Z,4.68
2022-08-01T23:14:54.927Z,4.57
2022-08-01T23:17:28.043Z,4.28
2022-08-01T23:19:58.698Z,4.50
2022-08-01T23:22:31.071Z,5.63
2022-08-01T23:25:03.617Z,4.60
2022-08-01T23:28:03.806Z,4.63
2022-08-01T23:30:27.124Z,5.00
2022-08-01T23:32:55.625Z,5.40
2022-08-01T23:35:24.237Z,4.80
2022-08-01T23:37:52.931Z,4.95
2022-08-01T23:40:25.039Z,5.20
2022-08-01T23:42:54.592Z,4.90
2022-08-01T23:45:23.399Z,4.75
2022-08-01T23:47:51.588Z,4.75
2022-08-01T23:50:19.667Z,4.60
2022-08-01T23:52:50.907Z,4.40
2022-08-01T23:55:19.706Z,4.72
2022-08-01T23:57:57.982Z,4.82
